createdAt,value
2019-02-24T00:00:35.813Z,-85
2019-02-24T00:03:02.013Z,-85
2019-02-24T00:05:28.203Z,-84
2019-02-24T00:07:54.389Z,-83
2019-02-24T00:10:20.581Z,-84
2019-02-24T00:12:46.786Z,-83
2019-02-24T00:15:12.977Z,-83
2019-02-24T00:17:39.160Z,-82
2019-02-24T00:20:05.399Z,-84
2019-02-24T00:22:31.593Z,-85
2019-02-24T00:27:30.099Z,-84
2019-02-24T00:29:56.327Z,-84
2019-02-24T00:32:22.572Z,-83
2019-02-24T00:34:49.167Z,-85
2019-02-24T00:37:15.358Z,-84
2019-02-24T00:39:41.581Z,-84
2019-02-24T00:42:07.775Z,-83
2019-02-24T00:44:33.975Z,-84
2019-02-24T00:47:00.199Z,-84
2019-02-24T00:49:26.388Z,-85
2019-02-24T00:51:52.613Z,-83
2019-02-24T00:54:18.825Z,-83
2019-02-24T00:56:45.017Z,-83
2019-02-24T00:59:11.214Z,-85
2019-02-24T01:01:37.422Z,-85
2019-02-24T01:04:03.630Z,-84
2019-02-24T01:06:29.837Z,-84
2019-02-24T01:08:56.053Z,-85
2019-02-24T01:11:22.282Z,-86
2019-02-24T01:13:48.481Z,-85
2019-02-24T01:16:15.434Z,-84
2019-02-24T01:18:41.639Z,-85
2019-02-24T01:21:07.825Z,-84
2019-02-24T01:23:34.034Z,-84
2019-02-24T01:26:00.223Z,-83
2019-02-24T01:28:26.421Z,-84
2019-02-24T01:30:52.609Z,-84
2019-02-24T01:33:18.793Z,-83
2019-02-24T01:35:44.999Z,-82
2019-02-24T01:38:11.214Z,-83
2019-02-24T01:40:37.412Z,-83
2019-02-24T01:43:03.684Z,-84
2019-02-24T01:45:29.854Z,-83
2019-02-24T01:47:56.062Z,-84
2019-02-24T01:50:22.259Z,-84
2019-02-24T01:52:48.478Z,-83
2019-02-24T01:55:14.660Z,-84
2019-02-24T01:57:40.890Z,-83
2019-02-24T02:00:07.077Z,-83
2019-02-24T02:02:33.277Z,-83
2019-02-24T02:04:59.458Z,-84
2019-02-24T02:07:25.711Z,-84
2019-02-24T02:09:51.970Z,-85
2019-02-24T02:12:18.167Z,-84
2019-02-24T02:14:44.386Z,-84
2019-02-24T02:17:10.597Z,-83
2019-02-24T02:19:36.784Z,-84
2019-02-24T02:22:02.991Z,-83
2019-02-24T02:24:29.176Z,-84
2019-02-24T02:26:55.387Z,-85
2019-02-24T02:29:21.589Z,-84
2019-02-24T02:31:47.773Z,-84
2019-02-24T02:34:14.003Z,-84
2019-02-24T02:36:40.219Z,-83
2019-02-24T02:39:06.438Z,-84
2019-02-24T02:41:32.667Z,-83
2019-02-24T02:43:58.893Z,-84
2019-02-24T02:46:26.930Z,-84
2019-02-24T02:48:53.168Z,-84
2019-02-24T02:51:19.381Z,-84
2019-02-24T02:53:45.598Z,-84
2019-02-24T02:56:13.179Z,-83
2019-02-24T02:58:38.060Z,-83
2019-02-24T03:01:04.245Z,-85
2019-02-24T03:03:30.454Z,-85
2019-02-24T03:05:56.679Z,-84
2019-02-24T03:08:22.855Z,-82
2019-02-24T03:10:49.057Z,-85
2019-02-24T03:13:15.296Z,-86
2019-02-24T03:15:41.495Z,-84
2019-02-24T03:18:07.815Z,-84
2019-02-24T03:23:05.672Z,-86
2019-02-24T03:25:31.866Z,-85
2019-02-24T03:27:58.117Z,-85
2019-02-24T03:30:24.299Z,-85
2019-02-24T03:32:55.497Z,-85
2019-02-24T03:35:21.956Z,-84
2019-02-24T03:37:48.146Z,-84
2019-02-24T03:40:14.350Z,-83
2019-02-24T03:42:40.582Z,-84
2019-02-24T03:45:06.788Z,-85
2019-02-24T03:47:33.010Z,-85
2019-02-24T03:49:59.266Z,-85
2019-02-24T03:52:25.497Z,-84
2019-02-24T03:57:23.559Z,-84
2019-02-24T03:59:49.750Z,-85
2019-02-24T04:02:15.958Z,-85
2019-02-24T04:04:42.154Z,-83
2019-02-24T04:07:08.352Z,-83
2019-02-24T04:09:34.553Z,-84
2019-02-24T04:12:00.737Z,-83
2019-02-24T04:14:26.955Z,-84
2019-02-24T04:16:53.149Z,-84
2019-02-24T04:19:19.376Z,-83
2019-02-24T04:21:45.585Z,-82
2019-02-24T04:24:11.794Z,-86
2019-02-24T04:26:38.445Z,-83
2019-02-24T04:29:04.652Z,-83
2019-02-24T04:31:30.838Z,-84
2019-02-24T04:33:57.040Z,-82
2019-02-24T04:36:23.266Z,-84
2019-02-24T04:38:49.474Z,-83
2019-02-24T04:41:15.703Z,-84
2019-02-24T04:43:41.905Z,-83
2019-02-24T04:46:08.176Z,-83
2019-02-24T04:48:34.365Z,-84
2019-02-24T04:51:00.616Z,-83
2019-02-24T04:53:26.850Z,-83
2019-02-24T04:55:53.059Z,-84
2019-02-24T04:58:19.277Z,-82
2019-02-24T05:00:45.514Z,-83
2019-02-24T05:03:12.013Z,-84
2019-02-24T05:05:38.195Z,-84
2019-02-24T05:08:07.715Z,-84
2019-02-24T05:10:34.069Z,-84
2019-02-24T05:13:00.285Z,-85
2019-02-24T05:15:27.249Z,-85
2019-02-24T05:17:53.475Z,-83
2019-02-24T05:20:19.670Z,-83
2019-02-24T05:22:45.890Z,-83
2019-02-24T05:25:12.102Z,-83
2019-02-24T05:27:38.355Z,-83
2019-02-24T05:30:04.560Z,-83
2019-02-24T05:32:30.778Z,-83
2019-02-24T05:34:57.005Z,-86
2019-02-24T05:37:23.218Z,-83
2019-02-24T05:39:49.411Z,-83
2019-02-24T05:42:15.609Z,-84
2019-02-24T05:44:41.796Z,-85
2019-02-24T05:47:07.986Z,-85
2019-02-24T05:49:34.193Z,-86
2019-02-24T05:52:00.393Z,-86
2019-02-24T05:54:26.583Z,-85
2019-02-24T05:56:52.804Z,-85
2019-02-24T05:59:26.272Z,-85
2019-02-24T06:01:52.490Z,-85
2019-02-24T06:04:18.717Z,-85
2019-02-24T06:06:44.950Z,-85
2019-02-24T06:09:11.196Z,-85
2019-02-24T06:11:37.415Z,-85
2019-02-24T06:14:03.636Z,-86
2019-02-24T06:16:29.870Z,-85
2019-02-24T06:18:56.121Z,-85
2019-02-24T06:21:22.368Z,-85
2019-02-24T06:23:48.567Z,-84
2019-02-24T06:26:14.758Z,-83
2019-02-24T06:28:40.949Z,-83
2019-02-24T06:31:07.159Z,-83
2019-02-24T06:33:37.497Z,-84
2019-02-24T06:36:03.772Z,-85
2019-02-24T06:38:29.990Z,-84
2019-02-24T06:40:56.186Z,-84
2019-02-24T06:43:22.382Z,-86
2019-02-24T06:45:48.560Z,-85
2019-02-24T06:48:14.747Z,-85
2019-02-24T06:50:40.947Z,-84
2019-02-24T06:53:07.320Z,-85
2019-02-24T06:55:33.542Z,-85
2019-02-24T06:57:59.754Z,-86
2019-02-24T07:00:25.990Z,-86
2019-02-24T07:02:52.198Z,-85
2019-02-24T07:05:18.414Z,-85
2019-02-24T07:07:44.597Z,-84
2019-02-24T07:10:10.842Z,-85
2019-02-24T07:12:37.822Z,-84
2019-02-24T07:15:04.059Z,-85
2019-02-24T07:17:30.256Z,-85
2019-02-24T07:19:56.482Z,-85
2019-02-24T07:22:22.675Z,-84
2019-02-24T07:24:48.920Z,-84
2019-02-24T07:27:15.102Z,-84
2019-02-24T07:29:41.285Z,-85
2019-02-24T07:32:07.473Z,-85
2019-02-24T07:34:34.453Z,-85
2019-02-24T07:37:01.402Z,-86
2019-02-24T07:39:27.606Z,-85
2019-02-24T07:41:53.829Z,-84
2019-02-24T07:44:20.037Z,-85
2019-02-24T07:46:46.248Z,-85
2019-02-24T07:49:13.215Z,-84
2019-02-24T07:51:39.422Z,-86
2019-02-24T07:54:05.616Z,-84
2019-02-24T07:56:31.819Z,-84
2019-02-24T07:58:58.049Z,-84
2019-02-24T08:01:24.247Z,-85
2019-02-24T08:03:50.453Z,-85
2019-02-24T08:06:16.644Z,-84
2019-02-24T08:08:42.931Z,-85
2019-02-24T08:11:09.141Z,-85
2019-02-24T08:13:35.341Z,-85
2019-02-24T08:16:02.343Z,-86
2019-02-24T08:18:28.547Z,-84
2019-02-24T08:20:54.847Z,-85
2019-02-24T08:23:20.983Z,-83
2019-02-24T08:25:47.618Z,-84
2019-02-24T08:28:13.826Z,-84
2019-02-24T08:30:41.906Z,-84
2019-02-24T08:33:06.273Z,-83
2019-02-24T08:35:32.491Z,-84
2019-02-24T08:37:58.692Z,-84
2019-02-24T08:40:24.917Z,-85
2019-02-24T08:42:55.633Z,-85
2019-02-24T08:45:21.830Z,-86
2019-02-24T08:47:48.040Z,-86
2019-02-24T08:50:14.262Z,-85
2019-02-24T08:52:40.482Z,-84
2019-02-24T08:55:06.702Z,-85
2019-02-24T08:57:37.521Z,-83
2019-02-24T09:00:03.707Z,-83
2019-02-24T09:02:29.922Z,-83
2019-02-24T09:04:56.116Z,-83
2019-02-24T09:07:22.313Z,-83
2019-02-24T09:09:48.506Z,-82
2019-02-24T09:12:15.008Z,-83
2019-02-24T09:14:40.968Z,-81
2019-02-24T09:17:07.156Z,-83
2019-02-24T09:19:33.355Z,-81
2019-02-24T09:21:59.545Z,-80
2019-02-24T09:24:25.752Z,-82
2019-02-24T09:26:51.945Z,-82
2019-02-24T09:29:18.139Z,-83
2019-02-24T09:31:45.119Z,-82
2019-02-24T09:34:11.305Z,-82
2019-02-24T09:36:37.488Z,-82
2019-02-24T09:39:04.074Z,-82
2019-02-24T09:41:30.258Z,-82
2019-02-24T09:43:56.431Z,-82
2019-02-24T09:46:22.637Z,-82
2019-02-24T09:48:48.822Z,-82
2019-02-24T09:51:15.005Z,-81
2019-02-24T09:53:41.982Z,-81
2019-02-24T09:56:08.170Z,-81
2019-02-24T09:58:37.525Z,-82
2019-02-24T10:01:10.172Z,-82
2019-02-24T10:03:30.010Z,-82
2019-02-24T10:05:56.220Z,-82
2019-02-24T10:08:22.403Z,-79
2019-02-24T10:10:50.512Z,-78
2019-02-24T10:13:16.704Z,-79
2019-02-24T10:15:42.890Z,-80
2019-02-24T10:18:09.085Z,-81
2019-02-24T10:20:35.291Z,-83
2019-02-24T10:23:01.489Z,-82
2019-02-24T10:25:27.682Z,-82
2019-02-24T10:27:53.872Z,-83
2019-02-24T10:30:20.075Z,-82
2019-02-24T10:32:46.296Z,-82
2019-02-24T10:35:12.523Z,-81
2019-02-24T10:37:38.748Z,-82
2019-02-24T10:40:04.983Z,-82
2019-02-24T10:42:31.173Z,-82
2019-02-24T10:44:57.381Z,-82
2019-02-24T10:47:23.576Z,-82
2019-02-24T10:49:49.781Z,-82
2019-02-24T10:52:16.733Z,-83
2019-02-24T10:54:42.946Z,-83
2019-02-24T10:57:12.836Z,-82
2019-02-24T10:59:35.365Z,-82
2019-02-24T11:02:01.549Z,-83
2019-02-24T11:04:27.765Z,-83
2019-02-24T11:06:53.965Z,-82
2019-02-24T11:09:20.159Z,-82
2019-02-24T11:11:46.351Z,-82
2019-02-24T11:14:12.609Z,-82
2019-02-24T11:16:38.791Z,-82
2019-02-24T11:19:04.988Z,-82
2019-02-24T11:21:31.181Z,-82
2019-02-24T11:23:57.355Z,-83
2019-02-24T11:26:23.535Z,-83
2019-02-24T11:28:49.740Z,-83
2019-02-24T11:31:15.926Z,-82
2019-02-24T11:33:42.114Z,-82
2019-02-24T11:36:08.351Z,-82
2019-02-24T11:38:34.538Z,-83
2019-02-24T11:41:00.764Z,-83
2019-02-24T11:43:26.956Z,-82
2019-02-24T11:45:53.169Z,-82
2019-02-24T11:48:19.356Z,-83
2019-02-24T11:50:45.548Z,-83
2019-02-24T11:53:11.726Z,-82
2019-02-24T11:55:37.937Z,-82
2019-02-24T11:58:04.893Z,-82
2019-02-24T12:00:31.099Z,-83
2019-02-24T12:02:57.289Z,-82
2019-02-24T12:05:23.483Z,-82
2019-02-24T12:07:49.673Z,-82
2019-02-24T12:10:15.901Z,-82
2019-02-24T12:12:42.120Z,-82
2019-02-24T12:15:08.322Z,-82
2019-02-24T12:17:34.531Z,-82
2019-02-24T12:20:00.737Z,-82
2019-02-24T12:22:26.946Z,-82
2019-02-24T12:24:53.137Z,-82
2019-02-24T12:27:19.345Z,-82
2019-02-24T12:29:45.522Z,-83
2019-02-24T12:32:13.645Z,-83
2019-02-24T12:34:39.832Z,-82
2019-02-24T12:37:06.032Z,-82
2019-02-24T12:39:32.243Z,-83
2019-02-24T12:41:58.445Z,-82
2019-02-24T12:44:24.633Z,-83
2019-02-24T12:46:50.867Z,-82
2019-02-24T12:49:17.068Z,-83
2019-02-24T12:51:43.271Z,-83
2019-02-24T12:54:09.480Z,-82
2019-02-24T12:56:35.704Z,-83
2019-02-24T12:59:01.931Z,-82
2019-02-24T13:01:28.131Z,-83
2019-02-24T13:03:54.322Z,-83
2019-02-24T13:06:20.511Z,-83
2019-02-24T13:08:46.714Z,-82
2019-02-24T13:11:12.919Z,-82
2019-02-24T13:13:39.141Z,-82
2019-02-24T13:16:05.330Z,-83
2019-02-24T13:18:31.553Z,-81
2019-02-24T13:20:57.767Z,-83
2019-02-24T13:23:23.998Z,-83
2019-02-24T13:25:50.194Z,-83
2019-02-24T13:28:19.767Z,-82
2019-02-24T13:30:45.974Z,-82
2019-02-24T13:33:12.177Z,-83
2019-02-24T13:35:38.363Z,-81
2019-02-24T13:38:04.552Z,-82
2019-02-24T13:40:30.734Z,-81
2019-02-24T13:42:56.932Z,-83
2019-02-24T13:45:23.169Z,-83
2019-02-24T13:47:49.374Z,-83
2019-02-24T13:50:15.573Z,-81
2019-02-24T13:52:41.758Z,-82
2019-02-24T13:55:07.955Z,-81
2019-02-24T13:57:34.153Z,-84
2019-02-24T14:00:00.362Z,-83
2019-02-24T14:02:26.573Z,-83
2019-02-24T14:04:52.781Z,-83
2019-02-24T14:07:18.983Z,-83
2019-02-24T14:09:45.221Z,-84
2019-02-24T14:12:11.442Z,-83
2019-02-24T14:14:37.693Z,-83
2019-02-24T14:17:03.877Z,-83
2019-02-24T14:19:30.142Z,-81
2019-02-24T14:21:56.577Z,-82
2019-02-24T14:24:22.840Z,-82
2019-02-24T14:26:49.050Z,-82
2019-02-24T14:29:15.250Z,-83
2019-02-24T14:31:41.435Z,-82
2019-02-24T14:34:07.617Z,-82
2019-02-24T14:36:34.581Z,-82
2019-02-24T14:39:00.816Z,-81
2019-02-24T14:41:27.013Z,-83
2019-02-24T14:43:53.196Z,-83
2019-02-24T14:46:19.381Z,-82
2019-02-24T14:48:45.555Z,-83
2019-02-24T14:51:11.760Z,-83
2019-02-24T14:53:37.972Z,-83
2019-02-24T14:56:04.187Z,-81
2019-02-24T14:58:30.404Z,-82
2019-02-24T15:00:56.616Z,-82
2019-02-24T15:03:22.808Z,-80
2019-02-24T15:05:49.035Z,-82
2019-02-24T15:08:15.228Z,-82
2019-02-24T15:10:41.440Z,-80
2019-02-24T15:13:08.417Z,-81
2019-02-24T15:15:34.623Z,-81
2019-02-24T15:18:00.833Z,-81
2019-02-24T15:20:27.021Z,-82
2019-02-24T15:22:53.233Z,-81
2019-02-24T15:25:19.428Z,-78
2019-02-24T15:27:45.619Z,-80
2019-02-24T15:30:12.003Z,-78
2019-02-24T15:37:42.431Z,-82
2019-02-24T15:40:08.681Z,-80
2019-02-24T15:42:34.861Z,-82
2019-02-24T15:45:01.108Z,-81
2019-02-24T15:47:27.305Z,-80
2019-02-24T15:49:53.526Z,-80
2019-02-24T15:52:19.737Z,-81
2019-02-24T15:54:45.932Z,-82
2019-02-24T15:57:12.180Z,-80
2019-02-24T15:59:38.423Z,-81
2019-02-24T16:02:04.654Z,-81
2019-02-24T16:04:30.871Z,-81
2019-02-24T16:09:28.533Z,-81
2019-02-24T16:11:55.638Z,-83
2019-02-24T16:14:21.820Z,-81
2019-02-24T16:16:48.001Z,-78
2019-02-24T16:19:14.185Z,-82
2019-02-24T16:21:40.398Z,-82
2019-02-24T16:24:06.586Z,-81
2019-02-24T16:26:32.782Z,-82
2019-02-24T16:28:59.186Z,-82
2019-02-24T16:31:25.370Z,-82
2019-02-24T16:33:51.582Z,-82
2019-02-24T16:36:17.824Z,-82
2019-02-24T16:38:50.101Z,-83
2019-02-24T16:41:16.289Z,-83
2019-02-24T16:43:42.620Z,-83
2019-02-24T16:46:08.821Z,-83
2019-02-24T16:48:35.080Z,-84
2019-02-24T16:51:01.291Z,-83
2019-02-24T16:53:27.584Z,-81
2019-02-24T16:55:54.590Z,-82
2019-02-24T16:58:25.876Z,-82
2019-02-24T17:00:52.073Z,-81
2019-02-24T17:03:20.094Z,-81
2019-02-24T17:08:16.491Z,-82
2019-02-24T17:10:42.750Z,-81
2019-02-24T17:13:14.058Z,-82
2019-02-24T17:15:44.316Z,-80
2019-02-24T17:18:10.614Z,-84
2019-02-24T17:20:36.902Z,-79
2019-02-24T17:23:03.485Z,-83
2019-02-24T17:25:33.178Z,-80
2019-02-24T17:28:02.094Z,-83
2019-02-24T17:30:29.061Z,-83
2019-02-24T17:32:55.253Z,-82
2019-02-24T17:37:53.026Z,-81
2019-02-24T17:42:50.645Z,-83
2019-02-24T17:45:16.833Z,-81
2019-02-24T17:47:43.102Z,-81
2019-02-24T17:50:09.285Z,-81
2019-02-24T17:52:35.492Z,-82
2019-02-24T17:55:01.686Z,-82
2019-02-24T17:57:27.857Z,-82
2019-02-24T17:59:55.993Z,-84
2019-02-24T18:02:22.173Z,-84
2019-02-24T18:04:48.415Z,-82
2019-02-24T18:07:14.631Z,-82
2019-02-24T18:09:40.844Z,-80
2019-02-24T18:12:07.088Z,-78
2019-02-24T18:14:33.299Z,-78
2019-02-24T18:17:00.432Z,-77
2019-02-24T18:19:32.122Z,-80
2019-02-24T18:21:58.307Z,-80
2019-02-24T18:24:25.798Z,-81
2019-02-24T18:26:52.053Z,-80
2019-02-24T18:29:18.263Z,-80
2019-02-24T18:31:44.493Z,-79
2019-02-24T18:34:10.723Z,-82
2019-02-24T18:36:36.943Z,-80
2019-02-24T18:39:03.130Z,-81
2019-02-24T18:41:29.325Z,-81
2019-02-24T18:43:55.522Z,-82
2019-02-24T18:46:21.723Z,-83
2019-02-24T18:48:47.998Z,-82
2019-02-24T18:51:14.199Z,-82
2019-02-24T18:53:40.385Z,-80
2019-02-24T18:56:06.641Z,-81
2019-02-24T18:58:32.823Z,-82
2019-02-24T19:00:59.031Z,-81
2019-02-24T19:03:25.241Z,-81
2019-02-24T19:05:51.518Z,-81
2019-02-24T19:08:17.705Z,-82
2019-02-24T19:10:43.922Z,-81
2019-02-24T19:13:10.137Z,-82
2019-02-24T19:15:36.313Z,-81
2019-02-24T19:18:02.497Z,-81
2019-02-24T19:20:28.690Z,-81
2019-02-24T19:22:54.903Z,-81
2019-02-24T19:25:21.115Z,-81
2019-02-24T19:27:47.313Z,-81
2019-02-24T19:30:13.505Z,-81
2019-02-24T19:32:39.696Z,-81
2019-02-24T19:35:05.875Z,-81
2019-02-24T19:37:32.064Z,-81
2019-02-24T19:39:58.257Z,-81
2019-02-24T19:42:24.436Z,-81
2019-02-24T19:44:50.657Z,-82
2019-02-24T19:47:16.842Z,-83
2019-02-24T19:49:43.028Z,-82
2019-02-24T19:52:09.235Z,-82
2019-02-24T19:54:35.446Z,-82
2019-02-24T19:57:01.723Z,-81
2019-02-24T19:59:28.683Z,-82
2019-02-24T20:01:54.871Z,-82
2019-02-24T20:04:21.092Z,-81
2019-02-24T20:06:47.359Z,-81
2019-02-24T20:09:13.550Z,-81
2019-02-24T20:11:39.740Z,-81
2019-02-24T20:14:05.950Z,-81
2019-02-24T20:16:32.137Z,-81
2019-02-24T20:18:58.337Z,-81
2019-02-24T20:21:24.525Z,-82
2019-02-24T20:23:50.713Z,-82
2019-02-24T20:26:16.892Z,-82
2019-02-24T20:28:43.118Z,-81
2019-02-24T20:31:09.308Z,-81
2019-02-24T20:33:36.299Z,-82
2019-02-24T20:36:02.506Z,-82
2019-02-24T20:38:28.709Z,-81
2019-02-24T20:40:54.896Z,-81
2019-02-24T20:43:21.094Z,-81
2019-02-24T20:45:47.307Z,-81
2019-02-24T20:48:13.505Z,-82
2019-02-24T20:50:39.693Z,-82
2019-02-24T20:53:05.951Z,-81
2019-02-24T20:55:32.145Z,-81
2019-02-24T20:57:58.344Z,-81
2019-02-24T21:00:24.534Z,-81
2019-02-24T21:02:50.732Z,-82
2019-02-24T21:05:16.917Z,-81
2019-02-24T21:07:43.120Z,-82
2019-02-24T21:10:10.076Z,-81
2019-02-24T21:12:36.274Z,-81
2019-02-24T21:15:02.460Z,-82
2019-02-24T21:17:28.638Z,-82
2019-02-24T21:19:54.904Z,-82
2019-02-24T21:22:21.085Z,-82
2019-02-24T21:24:47.269Z,-82
2019-02-24T21:27:13.449Z,-82
2019-02-24T21:29:39.712Z,-81
2019-02-24T21:32:05.907Z,-82
2019-02-24T21:34:32.134Z,-82
2019-02-24T21:37:02.043Z,-82
2019-02-24T21:39:28.232Z,-80
2019-02-24T21:41:54.431Z,-82
2019-02-24T21:44:20.633Z,-82
2019-02-24T21:46:46.814Z,-83
2019-02-24T21:49:12.989Z,-81
2019-02-24T21:51:39.170Z,-81
2019-02-24T21:54:05.423Z,-81
2019-02-24T21:56:31.606Z,-83
2019-02-24T21:58:57.789Z,-82
2019-02-24T22:01:23.985Z,-81
2019-02-24T22:03:50.173Z,-82
2019-02-24T22:06:16.394Z,-82
2019-02-24T22:08:42.571Z,-82
2019-02-24T22:11:08.773Z,-82
2019-02-24T22:13:34.968Z,-82
2019-02-24T22:16:01.235Z,-82
2019-02-24T22:18:27.464Z,-82
2019-02-24T22:20:53.664Z,-80
2019-02-24T22:23:19.849Z,-82
2019-02-24T22:25:46.718Z,-83
2019-02-24T22:28:12.896Z,-83
2019-02-24T22:30:39.112Z,-83
2019-02-24T22:33:05.303Z,-83
2019-02-24T22:35:31.506Z,-83
2019-02-24T22:37:57.708Z,-82
2019-02-24T22:40:23.909Z,-81
2019-02-24T22:42:50.112Z,-83
2019-02-24T22:45:16.967Z,-81
2019-02-24T22:47:42.564Z,-82
2019-02-24T22:50:08.746Z,-82
2019-02-24T22:52:34.946Z,-82
2019-02-24T22:55:01.919Z,-82
2019-02-24T22:57:28.126Z,-81
2019-02-24T22:59:54.318Z,-83
2019-02-24T23:02:20.534Z,-83
2019-02-24T23:04:46.710Z,-82
2019-02-24T23:07:12.922Z,-82
2019-02-24T23:09:39.104Z,-82
2019-02-24T23:12:05.300Z,-82
2019-02-24T23:14:31.501Z,-82
2019-02-24T23:16:57.738Z,-82
2019-02-24T23:19:23.926Z,-82
2019-02-24T23:21:50.115Z,-81
2019-02-24T23:24:16.305Z,-82
2019-02-24T23:26:43.273Z,-80
2019-02-24T23:29:10.239Z,-80
2019-02-24T23:31:36.435Z,-83
2019-02-24T23:34:02.630Z,-83
2019-02-24T23:36:28.809Z,-83
2019-02-24T23:38:55.034Z,-82
2019-02-24T23:41:21.243Z,-82
2019-02-24T23:43:47.517Z,-82
2019-02-24T23:46:13.719Z,-82
2019-02-24T23:48:39.944Z,-81
2019-02-24T23:51:06.154Z,-81
2019-02-24T23:53:32.349Z,-81
2019-02-24T23:55:58.550Z,-82
2019-02-24T23:58:24.801Z,-80
